createdAt,value
2017-07-31T00:00:01.429Z,22.5
2017-07-31T00:01:01.030Z,22.5
2017-07-31T00:01:59.870Z,22.5
2017-07-31T00:03:00.070Z,22.5
2017-07-31T00:03:59.282Z,22.4
2017-07-31T00:04:58.361Z,22.4
2017-07-31T00:05:58.062Z,22.4
2017-07-31T00:06:57.647Z,22.5
2017-07-31T00:07:56.851Z,22.4
2017-07-31T00:08:56.041Z,22.4
2017-07-31T00:09:55.754Z,22.4
2017-07-31T00:10:54.842Z,22.4
2017-07-31T00:11:25.372Z,22.4
2017-07-31T00:11:55.656Z,22.4
2017-07-31T00:12:53.850Z,22.5
2017-07-31T00:13:53.056Z,22.5
2017-07-31T00:14:52.792Z,22.5
2017-07-31T00:15:51.757Z,22.5
2017-07-31T00:16:51.472Z,22.4
2017-07-31T00:17:50.687Z,22.4
2017-07-31T00:18:50.396Z,22.3
2017-07-31T00:19:49.500Z,22.3
2017-07-31T00:20:49.235Z,22.3
2017-07-31T00:21:48.446Z,22.3
2017-07-31T00:22:18.723Z,22.3
2017-07-31T00:22:49.620Z,22.3
2017-07-31T00:23:19.893Z,22.3
2017-07-31T00:24:46.802Z,22.3
2017-07-31T00:25:45.896Z,22.3
2017-07-31T00:26:45.603Z,22.3
2017-07-31T00:27:44.810Z,22.3
2017-07-31T00:28:44.402Z,22.3
2017-07-31T00:29:43.603Z,22.3
2017-07-31T00:30:42.580Z,22.3
2017-07-31T00:31:42.062Z,22.2
2017-07-31T00:32:41.654Z,22.3
2017-07-31T00:34:40.411Z,22.3
2017-07-31T00:35:40.117Z,22.3
2017-07-31T00:36:39.336Z,22.3
2017-07-31T00:37:38.536Z,22.3
2017-07-31T00:38:38.123Z,22.3
2017-07-31T00:39:37.336Z,22.2
2017-07-31T00:40:36.676Z,22.1
2017-07-31T00:41:36.386Z,22.1
2017-07-31T00:42:35.592Z,22.2
2017-07-31T00:43:35.184Z,22.2
2017-07-31T00:44:34.393Z,22.2
2017-07-31T00:45:33.978Z,22.2
2017-07-31T00:46:33.179Z,22.2
2017-07-31T00:47:32.388Z,22.3
2017-07-31T00:48:32.094Z,22.3
2017-07-31T00:49:31.293Z,22.3
2017-07-31T00:50:30.490Z,22.3
2017-07-31T00:51:30.076Z,22.3
2017-07-31T00:52:29.662Z,22.3
2017-07-31T00:53:28.746Z,22.3
2017-07-31T00:54:28.444Z,22.3
2017-07-31T00:55:27.666Z,22.3
2017-07-31T00:56:26.752Z,22.3
2017-07-31T00:57:26.444Z,22.3
2017-07-31T00:58:25.640Z,22.3
2017-07-31T00:59:25.376Z,22.3
2017-07-31T01:00:24.461Z,22.4
2017-07-31T01:01:23.546Z,22.4
2017-07-31T01:02:23.254Z,22.3
2017-07-31T01:03:22.459Z,22.3
2017-07-31T01:04:22.154Z,22.3
2017-07-31T01:05:21.351Z,22.3
2017-07-31T01:06:20.934Z,22.3
2017-07-31T01:07:20.138Z,22.3
2017-07-31T01:08:19.334Z,22.3
2017-07-31T01:10:18.429Z,22.2
2017-07-31T01:11:17.623Z,22.2
2017-07-31T01:12:17.331Z,22.2
2017-07-31T01:13:16.412Z,22.3
2017-07-31T01:14:16.116Z,22.3
2017-07-31T01:15:15.327Z,22.3
2017-07-31T01:16:14.538Z,22.3
2017-07-31T01:17:14.121Z,22.3
2017-07-31T01:18:13.336Z,22.3
2017-07-31T01:19:12.809Z,22.3
2017-07-31T01:19:43.311Z,22.3
2017-07-31T01:20:13.695Z,22.3
2017-07-31T01:20:44.218Z,22.3
2017-07-31T01:22:11.100Z,22.3
2017-07-31T01:23:10.303Z,22.2
2017-07-31T01:24:09.504Z,22.2
2017-07-31T01:25:09.217Z,22.3
2017-07-31T01:26:08.687Z,22.3
2017-07-31T01:27:07.780Z,22.3
2017-07-31T01:28:07.377Z,22.3
2017-07-31T01:29:06.474Z,22.3
2017-07-31T01:30:05.952Z,22.3
2017-07-31T01:30:36.234Z,22.3
2017-07-31T01:31:06.636Z,22.3
2017-07-31T01:31:37.153Z,22.3
2017-07-31T01:32:07.550Z,22.3
2017-07-31T01:32:37.938Z,22.3
2017-07-31T01:34:03.311Z,22.3
2017-07-31T01:35:02.905Z,22.3
2017-07-31T01:36:02.495Z,22.3
2017-07-31T01:37:01.458Z,22.3
2017-07-31T01:38:01.048Z,22.3
2017-07-31T01:39:00.016Z,22.3
2017-07-31T01:40:00.119Z,22.3
2017-07-31T01:40:59.898Z,22.3
2017-07-31T01:41:58.497Z,22.2
2017-07-31T01:42:58.191Z,22.2
2017-07-31T01:43:57.268Z,22.2
2017-07-31T01:44:56.964Z,22.3
2017-07-31T01:45:56.159Z,22.3
2017-07-31T01:46:55.370Z,22.2
2017-07-31T01:47:55.069Z,22.3
2017-07-31T01:48:54.173Z,22.2
2017-07-31T01:49:24.697Z,22.2
2017-07-31T01:49:55.104Z,22.2
2017-07-31T01:50:25.510Z,22.2
2017-07-31T01:51:52.400Z,22.1
2017-07-31T01:52:52.110Z,22.1
2017-07-31T01:53:51.200Z,22.1
2017-07-31T01:54:50.404Z,22.1
2017-07-31T01:55:50.113Z,22.1
2017-07-31T01:56:49.319Z,22.1
2017-07-31T01:57:48.899Z,22.1
2017-07-31T01:58:48.116Z,22.1
2017-07-31T01:59:47.705Z,22.1
2017-07-31T02:00:46.901Z,22.1
2017-07-31T02:01:46.101Z,22.1
2017-07-31T02:02:45.675Z,22.1
2017-07-31T02:03:44.761Z,22.1
2017-07-31T02:05:43.376Z,22.1
2017-07-31T02:06:42.857Z,22
2017-07-31T02:07:42.431Z,22
2017-07-31T02:08:42.144Z,22
2017-07-31T02:09:41.344Z,22
2017-07-31T02:10:40.925Z,22
2017-07-31T02:11:40.137Z,22.1
2017-07-31T02:12:10.642Z,22.1
2017-07-31T02:12:41.162Z,22.1
2017-07-31T02:13:11.685Z,22.1
2017-07-31T02:13:42.198Z,22
2017-07-31T02:14:12.591Z,22
2017-07-31T02:15:37.462Z,22
2017-07-31T02:17:36.320Z,22
2017-07-31T02:18:35.930Z,22
2017-07-31T02:19:35.009Z,22
2017-07-31T02:20:34.713Z,22
2017-07-31T02:21:33.914Z,22
2017-07-31T02:22:33.115Z,22
2017-07-31T02:23:32.703Z,22
2017-07-31T02:24:31.914Z,22
2017-07-31T02:25:31.622Z,22
2017-07-31T02:26:30.832Z,22
2017-07-31T02:27:29.911Z,22
2017-07-31T02:28:29.620Z,22
2017-07-31T02:29:29.209Z,22
2017-07-31T02:30:28.194Z,22
2017-07-31T02:31:27.897Z,22
2017-07-31T02:32:26.869Z,22
2017-07-31T02:33:26.467Z,22
2017-07-31T02:34:25.547Z,22
2017-07-31T02:35:25.128Z,22
2017-07-31T02:36:24.837Z,22
2017-07-31T02:37:24.043Z,21.8
2017-07-31T02:38:23.242Z,21.8
2017-07-31T02:39:22.929Z,21.8
2017-07-31T02:40:22.122Z,21.8
2017-07-31T02:41:21.322Z,21.7
2017-07-31T02:42:20.900Z,21.7
2017-07-31T02:43:19.964Z,21.7
2017-07-31T02:45:18.820Z,21.6
2017-07-31T02:46:18.522Z,21.6
2017-07-31T02:47:17.707Z,21.7
2017-07-31T02:48:17.172Z,21.7
2017-07-31T02:49:16.362Z,21.7
2017-07-31T02:50:16.055Z,21.7
2017-07-31T02:51:15.018Z,21.6
2017-07-31T02:52:14.709Z,21.6
2017-07-31T02:53:13.801Z,21.5
2017-07-31T02:54:13.506Z,21.5
2017-07-31T02:55:12.957Z,21.5
2017-07-31T02:56:12.036Z,21.5
2017-07-31T02:57:11.605Z,21.5
2017-07-31T02:58:10.796Z,21.3
2017-07-31T02:59:10.380Z,21.4
2017-07-31T02:59:40.883Z,21.4
2017-07-31T03:00:11.270Z,21.4
2017-07-31T03:00:41.776Z,21.4
2017-07-31T03:01:12.278Z,21.3
2017-07-31T03:01:42.675Z,21.3
2017-07-31T03:02:13.066Z,21.3
2017-07-31T03:03:07.736Z,21.4
2017-07-31T03:04:07.205Z,21.3
2017-07-31T03:05:07.007Z,21.4
2017-07-31T03:06:06.193Z,21.3
2017-07-31T03:08:04.539Z,21.3
2017-07-31T03:09:04.238Z,21.3
2017-07-31T03:10:03.075Z,21.3
2017-07-31T03:11:03.148Z,21.3
2017-07-31T03:12:02.100Z,21.4
2017-07-31T03:13:01.796Z,21.3
2017-07-31T03:14:00.882Z,21.3
2017-07-31T03:15:00.465Z,21.3
2017-07-31T03:15:59.648Z,21.3
2017-07-31T03:16:59.356Z,21.3
2017-07-31T03:17:58.552Z,21.3
2017-07-31T03:18:58.245Z,21.3
2017-07-31T03:19:57.453Z,21.3
2017-07-31T03:20:56.663Z,21.3
2017-07-31T03:21:27.184Z,21.3
2017-07-31T03:21:57.693Z,21.3
2017-07-31T03:22:28.203Z,21.3
2017-07-31T03:23:54.597Z,21.3
2017-07-31T03:24:53.932Z,21.3
2017-07-31T03:25:53.392Z,21.3
2017-07-31T03:26:53.115Z,21.3
2017-07-31T03:27:52.195Z,21.2
2017-07-31T03:28:51.904Z,21.2
2017-07-31T03:29:51.113Z,21.1
2017-07-31T03:30:50.309Z,21
2017-07-31T03:31:50.025Z,21
2017-07-31T03:32:49.220Z,21.1
2017-07-31T03:33:48.423Z,21.1
2017-07-31T03:34:48.011Z,21.1
2017-07-31T03:35:47.473Z,21
2017-07-31T03:36:46.671Z,21
2017-07-31T03:37:46.383Z,21.1
2017-07-31T03:38:45.463Z,21.1
2017-07-31T03:39:44.929Z,21.1
2017-07-31T03:40:15.432Z,21.1
2017-07-31T03:40:45.822Z,21.1
2017-07-31T03:41:16.324Z,21.1
2017-07-31T03:41:46.839Z,21.1
2017-07-31T03:42:17.256Z,21.1
2017-07-31T03:43:42.495Z,21.1
2017-07-31T03:44:41.598Z,21.1
2017-07-31T03:45:41.192Z,21.1
2017-07-31T03:46:40.035Z,21.1
2017-07-31T03:47:39.602Z,21.1
2017-07-31T03:48:38.946Z,21
2017-07-31T03:49:38.517Z,21
2017-07-31T03:50:38.115Z,21
2017-07-31T03:51:37.299Z,21
2017-07-31T03:52:07.569Z,21
2017-07-31T03:52:37.960Z,21
2017-07-31T03:53:08.225Z,21
2017-07-31T03:53:38.731Z,21
2017-07-31T03:54:09.125Z,21
2017-07-31T03:54:39.495Z,21
2017-07-31T03:55:10.000Z,21
2017-07-31T03:56:34.364Z,20.9
2017-07-31T03:57:33.568Z,20.9
2017-07-31T03:58:32.760Z,20.9
2017-07-31T03:59:32.342Z,20.9
2017-07-31T04:00:31.543Z,20.9
2017-07-31T04:01:31.230Z,20.9
2017-07-31T04:02:30.427Z,20.8
2017-07-31T04:03:29.625Z,20.9
2017-07-31T04:04:29.328Z,20.9
2017-07-31T04:05:28.518Z,20.8
2017-07-31T04:06:27.709Z,20.7
2017-07-31T04:07:27.397Z,20.8
2017-07-31T04:08:26.247Z,20.8
2017-07-31T04:09:25.946Z,20.8
2017-07-31T04:10:25.639Z,20.7
2017-07-31T04:11:24.829Z,20.8
2017-07-31T04:12:23.912Z,20.8
2017-07-31T04:13:23.624Z,20.8
2017-07-31T04:14:22.820Z,20.7
2017-07-31T04:15:22.011Z,20.6
2017-07-31T04:16:21.739Z,20.7
2017-07-31T04:17:20.695Z,20.8
2017-07-31T04:18:20.393Z,20.8
2017-07-31T04:19:19.589Z,20.8
2017-07-31T04:20:19.158Z,20.8
2017-07-31T04:21:18.243Z,20.8
2017-07-31T04:22:17.947Z,20.8
2017-07-31T04:23:17.018Z,20.8
2017-07-31T04:24:16.720Z,20.9
2017-07-31T04:25:15.686Z,21
2017-07-31T04:26:15.295Z,21
2017-07-31T04:27:14.265Z,21
2017-07-31T04:28:13.954Z,21
2017-07-31T04:29:13.133Z,21
2017-07-31T04:30:12.603Z,21.1
2017-07-31T04:31:12.304Z,21
2017-07-31T04:32:11.496Z,21
2017-07-31T04:33:10.693Z,21
2017-07-31T04:34:10.389Z,21
2017-07-31T04:34:40.889Z,21
2017-07-31T04:35:11.162Z,21
2017-07-31T04:35:41.676Z,21
2017-07-31T04:37:08.433Z,21.1
2017-07-31T04:38:07.404Z,21
2017-07-31T04:40:06.499Z,21
2017-07-31T04:41:05.698Z,21
2017-07-31T04:42:04.770Z,21
2017-07-31T04:43:04.352Z,21.1
2017-07-31T04:44:03.543Z,21
2017-07-31T04:45:03.010Z,20.9
2017-07-31T04:46:02.588Z,20.9
2017-07-31T04:47:01.539Z,20.9
2017-07-31T04:48:01.236Z,21
2017-07-31T04:49:00.429Z,21
2017-07-31T04:50:59.399Z,20.9
2017-07-31T04:51:58.590Z,21
2017-07-31T04:52:58.176Z,21
2017-07-31T04:53:57.370Z,21
2017-07-31T04:54:56.452Z,20.9
2017-07-31T04:55:56.149Z,20.8
2017-07-31T04:56:55.095Z,20.8
2017-07-31T04:57:54.439Z,20.8
2017-07-31T04:58:54.010Z,20.9
2017-07-31T04:59:53.592Z,20.9
2017-07-31T05:01:51.938Z,20.9
2017-07-31T05:02:51.405Z,20.9
2017-07-31T05:03:50.866Z,21
2017-07-31T05:04:50.319Z,21
2017-07-31T05:05:49.506Z,21
2017-07-31T05:06:49.206Z,21.1
2017-07-31T05:07:48.397Z,21.1
2017-07-31T05:08:47.598Z,21.1
2017-07-31T05:09:47.296Z,21.3
2017-07-31T05:11:45.757Z,21.3
2017-07-31T05:12:44.848Z,21.6
2017-07-31T05:13:44.544Z,21.7
2017-07-31T05:15:43.134Z,21.9
2017-07-31T05:16:42.212Z,22
2017-07-31T05:17:41.954Z,22.1
2017-07-31T05:18:41.023Z,22.1
2017-07-31T05:19:40.605Z,22.1
2017-07-31T05:20:40.184Z,22.1
2017-07-31T05:21:39.271Z,22.3
2017-07-31T05:22:38.837Z,22.4
2017-07-31T05:23:37.913Z,22.4
2017-07-31T05:24:37.614Z,22.5
2017-07-31T05:25:36.808Z,22.6
2017-07-31T05:26:36.007Z,22.5
2017-07-31T05:27:35.222Z,22.6
2017-07-31T05:28:34.926Z,22.6
2017-07-31T05:29:34.006Z,22.6
2017-07-31T05:30:33.602Z,22.7
2017-07-31T05:31:32.807Z,22.8
2017-07-31T05:32:32.008Z,22.8
2017-07-31T05:33:31.703Z,22.8
2017-07-31T05:34:30.904Z,22.9
2017-07-31T05:35:30.096Z,23
2017-07-31T05:36:29.674Z,23
2017-07-31T05:37:28.872Z,23.1
2017-07-31T05:38:28.578Z,23.1
2017-07-31T05:39:27.661Z,23.1
2017-07-31T05:40:26.869Z,23.2
2017-07-31T05:40:57.248Z,23.2
2017-07-31T05:41:27.640Z,23.3
2017-07-31T05:41:58.144Z,23.3
2017-07-31T05:42:28.522Z,23.3
2017-07-31T05:42:59.036Z,23.3
2017-07-31T05:43:29.417Z,23.3
2017-07-31T05:43:59.825Z,23.3
2017-07-31T05:44:30.340Z,23.3
2017-07-31T05:45:00.611Z,23.3
2017-07-31T05:46:22.974Z,23.3
2017-07-31T05:47:22.668Z,23.2
2017-07-31T05:48:21.748Z,23.3
2017-07-31T05:49:21.452Z,23.5
2017-07-31T05:50:20.638Z,23.5
2017-07-31T05:51:19.628Z,23.5
2017-07-31T05:52:19.193Z,23.5
2017-07-31T05:53:18.780Z,23.5
2017-07-31T05:54:17.972Z,23.5
2017-07-31T05:54:48.389Z,23.5
2017-07-31T05:55:18.892Z,23.5
2017-07-31T05:56:16.974Z,23.7
2017-07-31T05:57:16.046Z,23.8
2017-07-31T05:58:15.119Z,23.9
2017-07-31T05:59:14.699Z,24
2017-07-31T06:00:14.181Z,24
2017-07-31T06:01:13.258Z,24.1
2017-07-31T06:02:12.828Z,24
2017-07-31T06:03:12.022Z,24
2017-07-31T06:04:11.605Z,24
2017-07-31T06:05:11.184Z,24.1
2017-07-31T06:06:10.259Z,24.1
2017-07-31T06:07:09.451Z,24.3
2017-07-31T06:08:08.926Z,24.3
2017-07-31T06:09:08.501Z,24.3
2017-07-31T06:10:07.583Z,24.3
2017-07-31T06:11:07.285Z,24.4
2017-07-31T06:12:06.484Z,24.5
2017-07-31T06:12:36.754Z,24.5
2017-07-31T06:13:07.151Z,24.6
2017-07-31T06:13:37.542Z,24.6
2017-07-31T06:14:07.920Z,24.7
2017-07-31T06:14:38.310Z,24.7
2017-07-31T06:16:03.461Z,24.7
2017-07-31T06:17:03.059Z,24.8
2017-07-31T06:22:00.207Z,24.9
2017-07-31T06:22:59.281Z,24.8
2017-07-31T06:23:58.862Z,24.8
2017-07-31T06:24:58.069Z,25
2017-07-31T06:25:57.535Z,25.1
2017-07-31T06:26:56.633Z,25.1
2017-07-31T06:27:56.341Z,25.1
2017-07-31T06:28:55.423Z,25.1
2017-07-31T06:29:54.997Z,25.2
2017-07-31T06:30:54.071Z,25.1
2017-07-31T06:31:53.658Z,25.1
2017-07-31T06:32:53.355Z,25.1
2017-07-31T06:33:52.548Z,25.3
2017-07-31T06:35:51.130Z,25.4
2017-07-31T06:36:50.604Z,25.4
2017-07-31T06:37:50.080Z,25.4
2017-07-31T06:39:48.438Z,25.5
2017-07-31T06:40:48.022Z,25.5
2017-07-31T06:41:47.713Z,25.6
2017-07-31T06:42:46.900Z,25.6
2017-07-31T06:43:46.088Z,25.7
2017-07-31T06:44:45.437Z,25.6
2017-07-31T06:45:45.007Z,25.6
2017-07-31T06:46:44.470Z,25.7
2017-07-31T06:47:43.427Z,25.7
2017-07-31T06:48:43.127Z,25.8
2017-07-31T06:49:42.716Z,25.8
2017-07-31T06:50:13.104Z,25.8
2017-07-31T06:50:43.620Z,25.8
2017-07-31T06:51:14.122Z,25.8
2017-07-31T06:51:44.521Z,25.9
2017-07-31T06:52:40.563Z,26
2017-07-31T06:53:39.642Z,26
2017-07-31T06:54:39.099Z,26
2017-07-31T06:56:38.077Z,26
2017-07-31T06:57:37.662Z,26
2017-07-31T06:58:36.745Z,26.1
2017-07-31T06:59:36.441Z,26.1
2017-07-31T07:00:35.652Z,26.2
2017-07-31T07:01:34.844Z,26.3
2017-07-31T07:02:34.556Z,26.3
2017-07-31T07:03:33.512Z,26.3
2017-07-31T07:04:33.223Z,26.3
2017-07-31T07:05:32.193Z,26.5
2017-07-31T07:06:31.781Z,26.6
2017-07-31T07:07:31.364Z,26.6
2017-07-31T07:08:30.837Z,26.6
2017-07-31T07:09:30.046Z,26.6
2017-07-31T07:10:29.250Z,26.6
2017-07-31T07:11:28.971Z,26.6
2017-07-31T07:12:28.161Z,26.6
2017-07-31T07:13:27.872Z,26.6
2017-07-31T07:14:27.065Z,26.6
2017-07-31T07:15:26.640Z,26.6
2017-07-31T07:16:25.602Z,26.6
2017-07-31T07:17:25.308Z,26.9
2017-07-31T07:18:24.496Z,26.8
2017-07-31T07:19:24.183Z,26.8
2017-07-31T07:20:23.371Z,26.8
2017-07-31T07:20:53.869Z,26.8
2017-07-31T07:21:24.257Z,26.8
2017-07-31T07:21:54.646Z,26.8
2017-07-31T07:22:25.170Z,26.8
2017-07-31T07:22:55.670Z,26.8
2017-07-31T07:24:21.037Z,26.7
2017-07-31T07:25:20.226Z,26.8
2017-07-31T07:26:19.924Z,26.8
2017-07-31T07:27:19.002Z,26.8
2017-07-31T07:28:18.717Z,26.8
2017-07-31T07:29:17.909Z,26.8
2017-07-31T07:30:17.111Z,26.9
2017-07-31T07:31:16.804Z,27
2017-07-31T07:32:16.013Z,27.1
2017-07-31T07:33:15.716Z,27.2
2017-07-31T07:34:14.793Z,27.3
2017-07-31T07:35:14.139Z,27.3
2017-07-31T07:36:13.596Z,27.3
2017-07-31T07:37:13.304Z,27.2
2017-07-31T07:38:12.506Z,27.1
2017-07-31T07:39:11.986Z,27
2017-07-31T07:40:11.187Z,27.1
2017-07-31T07:41:10.764Z,27.3
2017-07-31T07:42:09.971Z,27.3
2017-07-31T07:43:09.683Z,27.2
2017-07-31T07:44:08.893Z,27.2
2017-07-31T07:45:08.592Z,27.2
2017-07-31T07:46:07.783Z,27.3
2017-07-31T07:47:06.981Z,27.2
2017-07-31T07:48:06.686Z,27.4
2017-07-31T07:49:05.882Z,27.5
2017-07-31T07:50:05.575Z,27.5
2017-07-31T07:51:04.801Z,27.5
2017-07-31T07:52:04.508Z,27.5
2017-07-31T07:52:34.888Z,27.5
2017-07-31T07:53:05.382Z,27.5
2017-07-31T07:54:03.055Z,27.5
2017-07-31T07:55:02.523Z,27.5
2017-07-31T07:56:01.730Z,27.6
2017-07-31T07:57:01.088Z,27.7
2017-07-31T07:58:00.667Z,27.7
2017-07-31T07:59:00.357Z,27.8
2017-07-31T07:59:59.554Z,27.8
2017-07-31T08:00:59.264Z,27.8
2017-07-31T08:01:58.463Z,27.8
2017-07-31T08:02:57.661Z,27.9
2017-07-31T08:03:57.256Z,27.8
2017-07-31T08:04:56.955Z,27.8
2017-07-31T08:05:56.152Z,27.8
2017-07-31T08:06:55.745Z,27.9
2017-07-31T08:07:54.706Z,28
2017-07-31T08:08:54.405Z,27.9
2017-07-31T08:09:53.980Z,28
2017-07-31T08:10:52.706Z,28
2017-07-31T08:11:52.704Z,28
2017-07-31T08:12:52.162Z,28
2017-07-31T08:13:22.429Z,28
2017-07-31T08:13:52.809Z,28
2017-07-31T08:14:23.102Z,28
2017-07-31T08:14:53.493Z,28
2017-07-31T08:15:23.997Z,28
2017-07-31T08:16:49.768Z,28.2
2017-07-31T08:17:49.353Z,28.2
2017-07-31T08:18:48.555Z,28.3
2017-07-31T08:19:48.247Z,28.4
2017-07-31T08:20:47.313Z,28.4
2017-07-31T08:22:46.267Z,28.3
2017-07-31T08:23:45.960Z,28.3
2017-07-31T08:24:45.026Z,28.2
2017-07-31T08:25:44.713Z,28.2
2017-07-31T08:26:44.283Z,28.2
2017-07-31T08:27:43.361Z,28.2
2017-07-31T08:28:42.941Z,28.3
2017-07-31T08:29:42.524Z,28.3
2017-07-31T08:30:41.882Z,28.3
2017-07-31T08:31:41.582Z,28.2
2017-07-31T08:32:40.780Z,28.3
2017-07-31T08:33:40.248Z,28.2
2017-07-31T08:34:39.953Z,28.2
2017-07-31T08:35:39.142Z,28.3
2017-07-31T08:36:38.843Z,28.3
2017-07-31T08:37:37.700Z,28.3
2017-07-31T08:38:37.285Z,28.4
2017-07-31T08:39:36.979Z,28.6
2017-07-31T08:40:36.675Z,28.6
2017-07-31T08:41:35.875Z,28.6
2017-07-31T08:42:35.579Z,28.8
2017-07-31T08:43:34.786Z,28.8
2017-07-31T08:44:34.492Z,28.6
2017-07-31T08:45:33.571Z,28.6
2017-07-31T08:46:04.078Z,28.6
2017-07-31T08:46:34.580Z,28.6
2017-07-31T08:47:32.419Z,28.6
2017-07-31T08:48:32.001Z,28.7
2017-07-31T08:49:31.454Z,28.8
2017-07-31T08:50:30.926Z,28.8
2017-07-31T08:51:30.505Z,28.8
2017-07-31T08:52:29.851Z,28.8
2017-07-31T08:53:29.431Z,28.8
2017-07-31T08:54:29.008Z,28.7
2017-07-31T08:55:27.977Z,28.7
2017-07-31T08:56:27.949Z,28.7
2017-07-31T08:57:27.021Z,28.7
2017-07-31T08:58:26.596Z,28.8
2017-07-31T08:59:26.178Z,28.9
2017-07-31T09:00:25.897Z,28.9
2017-07-31T09:01:24.971Z,29
2017-07-31T09:01:55.371Z,29
2017-07-31T09:03:24.141Z,29
2017-07-31T09:04:22.979Z,28.8
2017-07-31T09:05:22.940Z,28.7
2017-07-31T09:06:22.639Z,28.7
2017-07-31T09:08:21.001Z,28.8
2017-07-31T09:09:20.704Z,28.8
2017-07-31T09:10:20.294Z,28.8
2017-07-31T09:11:19.987Z,28.9
2017-07-31T09:12:19.189Z,28.9
2017-07-31T09:13:18.768Z,29
2017-07-31T09:14:18.353Z,29
2017-07-31T09:15:17.545Z,29.1
2017-07-31T09:16:17.132Z,29.1
2017-07-31T09:17:16.317Z,29.1
2017-07-31T09:18:15.895Z,29.1
2017-07-31T09:19:15.589Z,29
2017-07-31T09:20:14.800Z,29
2017-07-31T09:21:14.383Z,28.9
2017-07-31T09:22:13.963Z,28.9
2017-07-31T09:23:13.165Z,28.9
2017-07-31T09:24:12.615Z,28.9
2017-07-31T09:24:42.879Z,28.9
2017-07-31T09:25:13.658Z,28.9
2017-07-31T09:26:11.840Z,28.8
2017-07-31T09:27:11.414Z,28.9
2017-07-31T09:28:10.604Z,29
2017-07-31T09:29:10.189Z,28.8
2017-07-31T09:30:09.773Z,28.9
2017-07-31T09:31:08.972Z,28.9
2017-07-31T09:32:08.554Z,29
2017-07-31T09:33:08.132Z,28.8
2017-07-31T09:34:07.212Z,28.9
2017-07-31T09:35:06.940Z,29
2017-07-31T09:36:06.407Z,29
2017-07-31T09:37:06.100Z,29
2017-07-31T09:38:05.320Z,29.1
2017-07-31T09:39:05.017Z,29.1
2017-07-31T09:40:04.087Z,29
2017-07-31T09:41:03.668Z,29
2017-07-31T09:42:03.384Z,29.2
2017-07-31T09:43:02.733Z,29.2
2017-07-31T09:44:02.431Z,29.1
2017-07-31T09:45:01.391Z,29.1
2017-07-31T09:46:01.091Z,29.1
2017-07-31T09:47:00.691Z,29.1
2017-07-31T09:48:00.272Z,29.1
2017-07-31T09:48:59.972Z,29.1
2017-07-31T09:49:59.046Z,29.1
2017-07-31T09:50:58.738Z,29.1
2017-07-31T09:51:58.320Z,29.1
2017-07-31T09:52:57.405Z,29.1
2017-07-31T09:53:27.918Z,29.1
2017-07-31T09:53:58.421Z,29.1
2017-07-31T09:54:28.714Z,29.1
2017-07-31T09:54:59.107Z,29.1
2017-07-31T09:55:29.622Z,29.1
2017-07-31T09:56:00.122Z,29.1
2017-07-31T09:56:30.626Z,29.1
2017-07-31T09:57:55.378Z,29.1
2017-07-31T09:58:54.570Z,29.1
2017-07-31T09:59:54.148Z,29.1
2017-07-31T10:00:53.719Z,29.1
2017-07-31T10:01:52.781Z,29.1
2017-07-31T10:02:52.485Z,29.1
2017-07-31T10:03:52.174Z,29.1
2017-07-31T10:04:51.365Z,29.1
2017-07-31T10:05:50.951Z,29.1
2017-07-31T10:06:50.537Z,29
2017-07-31T10:07:21.199Z,29
2017-07-31T10:07:51.585Z,29
2017-07-31T10:08:49.306Z,29.1
2017-07-31T10:09:48.887Z,29
2017-07-31T10:10:48.463Z,29.1
2017-07-31T10:11:48.160Z,29.1
2017-07-31T10:12:47.240Z,29.1
2017-07-31T10:13:46.703Z,29.1
2017-07-31T10:14:46.168Z,29.1
2017-07-31T10:15:45.884Z,29.1
2017-07-31T10:16:45.457Z,29.1
2017-07-31T10:17:44.914Z,29.1
2017-07-31T10:18:44.611Z,29.1
2017-07-31T10:19:43.815Z,29
2017-07-31T10:20:43.518Z,29
2017-07-31T10:21:43.106Z,29
2017-07-31T10:22:42.310Z,29.1
2017-07-31T10:23:42.010Z,29
2017-07-31T10:24:41.355Z,29
2017-07-31T10:25:40.947Z,29
2017-07-31T10:26:40.653Z,28.9
2017-07-31T10:27:11.034Z,28.9
2017-07-31T10:28:39.808Z,29
2017-07-31T10:29:38.771Z,29
2017-07-31T10:30:38.347Z,29
2017-07-31T10:32:37.702Z,29.2
2017-07-31T10:33:36.889Z,29.3
2017-07-31T10:34:36.589Z,29.3
2017-07-31T10:35:36.290Z,29.3
2017-07-31T10:36:35.372Z,29.3
2017-07-31T10:37:35.086Z,29.3
2017-07-31T10:38:34.801Z,29.1
2017-07-31T10:39:34.398Z,29.1
2017-07-31T10:41:33.000Z,28.9
2017-07-31T10:42:32.716Z,28.8
2017-07-31T10:43:03.220Z,28.8
2017-07-31T10:43:33.498Z,28.8
2017-07-31T10:44:31.698Z,29
2017-07-31T10:45:31.405Z,29
2017-07-31T10:46:30.600Z,29.1
2017-07-31T10:47:30.181Z,29.1
2017-07-31T10:48:29.410Z,29.1
2017-07-31T10:49:28.988Z,29.2
2017-07-31T10:50:28.445Z,29.3
2017-07-31T10:55:26.083Z,29.3
2017-07-31T10:56:25.419Z,29.3
2017-07-31T10:57:25.385Z,29.3
2017-07-31T10:58:24.969Z,29.3
2017-07-31T10:59:24.555Z,29.3
2017-07-31T11:00:23.627Z,29.4
2017-07-31T11:01:23.726Z,29.4
2017-07-31T11:02:22.926Z,29.4
2017-07-31T11:03:22.509Z,29.5
2017-07-31T11:04:22.219Z,29.5
2017-07-31T11:04:52.598Z,29.5
2017-07-31T11:06:20.875Z,29.5
2017-07-31T11:07:20.576Z,29.5
2017-07-31T11:08:20.295Z,29.5
2017-07-31T11:09:19.491Z,29.5
2017-07-31T11:10:19.188Z,29.3
2017-07-31T11:11:18.891Z,29.3
2017-07-31T11:12:18.091Z,29.3
2017-07-31T11:13:17.703Z,29.2
2017-07-31T11:14:17.297Z,29.1
2017-07-31T11:15:17.006Z,29.1
2017-07-31T11:16:16.086Z,29.1
2017-07-31T11:17:15.790Z,29.1
2017-07-31T11:18:15.248Z,29.1
2017-07-31T11:19:14.714Z,29.2
2017-07-31T11:20:14.418Z,29.3
2017-07-31T11:21:14.124Z,29.3
2017-07-31T11:22:13.834Z,29.3
2017-07-31T11:23:13.026Z,29.3
2017-07-31T11:24:12.606Z,29.3
2017-07-31T11:25:12.070Z,29.3
2017-07-31T11:26:11.660Z,29.3
2017-07-31T11:27:11.244Z,29.1
2017-07-31T11:28:10.837Z,29
2017-07-31T11:29:10.412Z,29
2017-07-31T11:30:10.098Z,29
2017-07-31T11:31:09.167Z,29
2017-07-31T11:32:08.749Z,29
2017-07-31T11:33:08.319Z,29
2017-07-31T11:34:07.902Z,29
2017-07-31T11:34:38.285Z,29
2017-07-31T11:35:08.682Z,29
2017-07-31T11:35:39.064Z,29
2017-07-31T11:36:09.447Z,29
2017-07-31T11:36:39.834Z,29
2017-07-31T11:37:10.333Z,28.8
2017-07-31T11:37:40.733Z,28.8
2017-07-31T11:38:10.997Z,28.7
2017-07-31T11:38:41.257Z,28.7
2017-07-31T11:40:05.002Z,28.6
2017-07-31T11:41:04.696Z,28.6
2017-07-31T11:42:04.271Z,28.7
2017-07-31T11:43:03.969Z,28.7
2017-07-31T11:44:03.674Z,28.7
2017-07-31T11:45:02.877Z,28.8
2017-07-31T11:46:02.469Z,28.8
2017-07-31T11:47:02.079Z,28.9
2017-07-31T11:48:01.703Z,28.9
2017-07-31T11:48:32.094Z,28.9
2017-07-31T11:49:02.615Z,28.9
2017-07-31T11:49:33.118Z,28.9
2017-07-31T11:51:00.510Z,28.8
2017-07-31T11:51:59.705Z,28.8
2017-07-31T11:52:59.412Z,28.8
2017-07-31T11:53:59.107Z,28.8
2017-07-31T11:54:58.189Z,28.8
2017-07-31T11:55:57.771Z,28.8
2017-07-31T11:56:57.618Z,28.8
2017-07-31T11:57:57.198Z,28.4
2017-07-31T11:58:56.776Z,28.5
2017-07-31T12:00:55.739Z,28.5
2017-07-31T12:01:55.430Z,28.5
2017-07-31T12:02:55.139Z,28.5
2017-07-31T12:03:54.734Z,28.5
2017-07-31T12:04:53.943Z,28.6
2017-07-31T12:05:53.519Z,28.6
2017-07-31T12:06:53.220Z,28.8
2017-07-31T12:07:52.690Z,28.8
2017-07-31T12:08:23.221Z,28.8
2017-07-31T12:09:51.877Z,28.8
2017-07-31T12:10:51.574Z,28.9
2017-07-31T12:11:50.769Z,29
2017-07-31T12:12:50.733Z,29
2017-07-31T12:13:49.928Z,29
2017-07-31T12:14:49.385Z,29
2017-07-31T12:15:49.078Z,29
2017-07-31T12:16:48.551Z,29
2017-07-31T12:17:48.501Z,29
2017-07-31T12:18:48.078Z,29
2017-07-31T12:19:47.781Z,29
2017-07-31T12:20:46.871Z,28.8
2017-07-31T12:21:46.467Z,28.8
2017-07-31T12:22:46.045Z,28.7
2017-07-31T12:23:45.640Z,28.6
2017-07-31T12:24:45.103Z,28.6
2017-07-31T12:25:44.576Z,28.6
2017-07-31T12:26:44.540Z,28.6
2017-07-31T12:27:43.887Z,28.6
2017-07-31T12:28:43.459Z,28.6
2017-07-31T12:29:43.725Z,28.6
2017-07-31T12:30:42.919Z,28.7
2017-07-31T12:31:13.324Z,28.7
2017-07-31T12:32:42.092Z,28.8
2017-07-31T12:33:41.799Z,28.8
2017-07-31T12:34:40.982Z,28.8
2017-07-31T12:35:41.067Z,28.9
2017-07-31T12:36:40.639Z,29
2017-07-31T12:37:40.235Z,29
2017-07-31T12:38:39.432Z,29
2017-07-31T12:39:39.129Z,29
2017-07-31T12:40:38.594Z,29
2017-07-31T12:41:38.294Z,29
2017-07-31T12:42:38.010Z,29
2017-07-31T12:43:37.708Z,29.1
2017-07-31T12:44:36.793Z,29.1
2017-07-31T12:45:36.146Z,29.1
2017-07-31T12:46:36.348Z,29.1
2017-07-31T12:47:06.866Z,29.1
2017-07-31T12:47:37.266Z,29.1
2017-07-31T12:48:07.657Z,29.1
2017-07-31T12:48:38.187Z,29
2017-07-31T12:49:34.738Z,29
2017-07-31T12:50:34.833Z,29
2017-07-31T12:51:34.293Z,29
2017-07-31T12:52:33.889Z,29.1
2017-07-31T12:53:33.347Z,29.1
2017-07-31T12:54:32.703Z,29.1
2017-07-31T12:55:32.287Z,29.2
2017-07-31T12:56:32.380Z,29.2
2017-07-31T12:57:31.464Z,29.2
2017-07-31T12:58:31.168Z,29.3
2017-07-31T12:59:31.254Z,29.3
2017-07-31T13:00:30.447Z,29.3
2017-07-31T13:01:30.155Z,29.2